sensor_id;sensor_type;location;lat;lon;timestamp;temperature;humidity
74101;DHT22;62462;52.530;21.682;2023-07-31T00:01:16;20.70;64.20
74101;DHT22;62462;52.530;21.682;2023-07-31T00:03:41;20.70;64.10
74101;DHT22;62462;52.530;21.682;2023-07-31T00:06:07;20.70;64.10
74101;DHT22;62462;52.530;21.682;2023-07-31T00:08:33;20.70;64.20
74101;DHT22;62462;52.530;21.682;2023-07-31T00:10:58;20.80;64.20
74101;DHT22;62462;52.530;21.682;2023-07-31T00:13:24;20.80;64.00
74101;DHT22;62462;52.530;21.682;2023-07-31T00:15:50;20.80;64.10
74101;DHT22;62462;52.530;21.682;2023-07-31T00:18:16;20.80;64.60
74101;DHT22;62462;52.530;21.682;2023-07-31T00:20:41;20.80;65.10
74101;DHT22;62462;52.530;21.682;2023-07-31T00:23:07;20.70;64.50
74101;DHT22;62462;52.530;21.682;2023-07-31T00:25:32;20.70;64.40
74101;DHT22;62462;52.530;21.682;2023-07-31T00:27:58;20.80;64.70
74101;DHT22;62462;52.530;21.682;2023-07-31T00:30:24;20.80;64.90
74101;DHT22;62462;52.530;21.682;2023-07-31T00:32:50;20.80;65.00
74101;DHT22;62462;52.530;21.682;2023-07-31T00:35:16;20.80;65.00
74101;DHT22;62462;52.530;21.682;2023-07-31T00:37:42;20.80;64.90
74101;DHT22;62462;52.530;21.682;2023-07-31T00:40:08;20.90;65.50
74101;DHT22;62462;52.530;21.682;2023-07-31T00:42:34;20.80;65.30
74101;DHT22;62462;52.530;21.682;2023-07-31T00:44:59;20.90;65.10
74101;DHT22;62462;52.530;21.682;2023-07-31T00:47:25;20.90;65.30
74101;DHT22;62462;52.530;21.682;2023-07-31T00:49:51;20.90;65.50
74101;DHT22;62462;52.530;21.682;2023-07-31T00:52:18;20.80;65.50
74101;DHT22;62462;52.530;21.682;2023-07-31T00:54:44;20.80;65.50
74101;DHT22;62462;52.530;21.682;2023-07-31T00:57:10;20.80;65.90
74101;DHT22;62462;52.530;21.682;2023-07-31T00:59:36;20.90;65.70
74101;DHT22;62462;52.530;21.682;2023-07-31T01:02:01;20.90;65.70
74101;DHT22;62462;52.530;21.682;2023-07-31T01:04:28;20.90;65.70
74101;DHT22;62462;52.530;21.682;2023-07-31T01:07:05;20.90;65.40
74101;DHT22;62462;52.530;21.682;2023-07-31T01:09:57;20.90;65.20
74101;DHT22;62462;52.530;21.682;2023-07-31T01:12:24;20.80;65.60
74101;DHT22;62462;52.530;21.682;2023-07-31T01:15:05;20.70;65.90
74101;DHT22;62462;52.530;21.682;2023-07-31T01:17:31;20.60;66.10
74101;DHT22;62462;52.530;21.682;2023-07-31T01:20:01;20.60;66.70
74101;DHT22;62462;52.530;21.682;2023-07-31T01:27:49;20.60;65.60
74101;DHT22;62462;52.530;21.682;2023-07-31T01:30:21;20.50;65.50
74101;DHT22;62462;52.530;21.682;2023-07-31T01:32:49;20.50;65.20
74101;DHT22;62462;52.530;21.682;2023-07-31T01:35:17;20.50;65.20
74101;DHT22;62462;52.530;21.682;2023-07-31T01:37:43;20.40;65.30
74101;DHT22;62462;52.530;21.682;2023-07-31T01:40:09;20.40;65.60
74101;DHT22;62462;52.530;21.682;2023-07-31T01:42:34;20.40;65.70
74101;DHT22;62462;52.530;21.682;2023-07-31T01:45:00;20.30;66.00
74101;DHT22;62462;52.530;21.682;2023-07-31T01:47:26;20.30;66.50
74101;DHT22;62462;52.530;21.682;2023-07-31T01:49:51;20.30;66.20
74101;DHT22;62462;52.530;21.682;2023-07-31T01:52:17;20.30;66.00
74101;DHT22;62462;52.530;21.682;2023-07-31T01:54:43;20.30;66.00
74101;DHT22;62462;52.530;21.682;2023-07-31T01:57:08;20.30;66.00
74101;DHT22;62462;52.530;21.682;2023-07-31T01:59:34;20.20;66.00
74101;DHT22;62462;52.530;21.682;2023-07-31T02:02:00;20.20;66.40
74101;DHT22;62462;52.530;21.682;2023-07-31T02:04:25;20.20;66.00
74101;DHT22;62462;52.530;21.682;2023-07-31T02:06:52;20.20;66.00
74101;DHT22;62462;52.530;21.682;2023-07-31T02:09:18;20.30;66.00
74101;DHT22;62462;52.530;21.682;2023-07-31T02:11:44;20.30;66.50
74101;DHT22;62462;52.530;21.682;2023-07-31T02:14:09;20.30;66.60
74101;DHT22;62462;52.530;21.682;2023-07-31T02:16:35;20.30;66.70
74101;DHT22;62462;52.530;21.682;2023-07-31T02:19:01;20.30;66.30
74101;DHT22;62462;52.530;21.682;2023-07-31T02:21:26;20.30;66.30
74101;DHT22;62462;52.530;21.682;2023-07-31T02:23:52;20.30;66.70
74101;DHT22;62462;52.530;21.682;2023-07-31T02:26:17;20.20;67.20
74101;DHT22;62462;52.530;21.682;2023-07-31T02:28:43;20.20;67.50
74101;DHT22;62462;52.530;21.682;2023-07-31T02:31:09;20.20;67.30
74101;DHT22;62462;52.530;21.682;2023-07-31T02:33:34;20.20;67.20
74101;DHT22;62462;52.530;21.682;2023-07-31T02:36:00;20.20;67.00
74101;DHT22;62462;52.530;21.682;2023-07-31T02:38:26;20.20;67.10
74101;DHT22;62462;52.530;21.682;2023-07-31T02:40:52;20.20;67.20
74101;DHT22;62462;52.530;21.682;2023-07-31T02:43:17;20.20;67.40
74101;DHT22;62462;52.530;21.682;2023-07-31T02:45:43;20.20;67.40
74101;DHT22;62462;52.530;21.682;2023-07-31T02:48:09;20.20;67.60
74101;DHT22;62462;52.530;21.682;2023-07-31T02:50:35;20.30;67.60
74101;DHT22;62462;52.530;21.682;2023-07-31T02:53:00;20.30;68.00
74101;DHT22;62462;52.530;21.682;2023-07-31T02:55:26;20.30;67.90
74101;DHT22;62462;52.530;21.682;2023-07-31T02:57:52;20.30;67.70
74101;DHT22;62462;52.530;21.682;2023-07-31T03:00:18;20.30;67.80
74101;DHT22;62462;52.530;21.682;2023-07-31T03:02:44;20.30;68.00
74101;DHT22;62462;52.530;21.682;2023-07-31T03:05:10;20.30;67.90
74101;DHT22;62462;52.530;21.682;2023-07-31T03:07:35;20.40;68.30
74101;DHT22;62462;52.530;21.682;2023-07-31T03:10:01;20.40;68.40
74101;DHT22;62462;52.530;21.682;2023-07-31T03:12:27;20.40;68.40
74101;DHT22;62462;52.530;21.682;2023-07-31T03:14:52;20.40;68.50
74101;DHT22;62462;52.530;21.682;2023-07-31T03:17:18;20.40;68.50
74101;DHT22;62462;52.530;21.682;2023-07-31T03:19:44;20.40;68.70
74101;DHT22;62462;52.530;21.682;2023-07-31T03:22:09;20.40;68.70
74101;DHT22;62462;52.530;21.682;2023-07-31T03:24:35;20.40;69.10
74101;DHT22;62462;52.530;21.682;2023-07-31T03:27:01;20.40;69.30
74101;DHT22;62462;52.530;21.682;2023-07-31T03:29:26;20.40;69.40
74101;DHT22;62462;52.530;21.682;2023-07-31T03:31:52;20.30;69.70
74101;DHT22;62462;52.530;21.682;2023-07-31T03:34:18;20.30;70.10
74101;DHT22;62462;52.530;21.682;2023-07-31T03:36:44;20.30;69.80
74101;DHT22;62462;52.530;21.682;2023-07-31T03:39:10;20.30;69.60
74101;DHT22;62462;52.530;21.682;2023-07-31T03:41:35;20.40;69.60
74101;DHT22;62462;52.530;21.682;2023-07-31T03:44:01;20.40;69.50
74101;DHT22;62462;52.530;21.682;2023-07-31T03:46:27;20.50;69.50
74101;DHT22;62462;52.530;21.682;2023-07-31T03:48:52;20.50;69.80
74101;DHT22;62462;52.530;21.682;2023-07-31T03:51:18;20.50;69.90
74101;DHT22;62462;52.530;21.682;2023-07-31T03:53:44;20.50;69.90
74101;DHT22;62462;52.530;21.682;2023-07-31T03:56:10;20.40;70.10
74101;DHT22;62462;52.530;21.682;2023-07-31T03:58:36;20.40;70.20
74101;DHT22;62462;52.530;21.682;2023-07-31T04:01:03;20.40;70.00
74101;DHT22;62462;52.530;21.682;2023-07-31T04:03:29;20.40;69.80
74101;DHT22;62462;52.530;21.682;2023-07-31T04:05:55;20.40;70.20
74101;DHT22;62462;52.530;21.682;2023-07-31T04:08:22;20.40;70.50
74101;DHT22;62462;52.530;21.682;2023-07-31T04:10:48;20.30;70.60
74101;DHT22;62462;52.530;21.682;2023-07-31T04:13:14;20.20;71.10
74101;DHT22;62462;52.530;21.682;2023-07-31T04:15:40;20.20;71.50
74101;DHT22;62462;52.530;21.682;2023-07-31T04:18:05;20.10;71.90
74101;DHT22;62462;52.530;21.682;2023-07-31T04:20:31;20.00;72.00
74101;DHT22;62462;52.530;21.682;2023-07-31T04:22:57;20.00;72.20
74101;DHT22;62462;52.530;21.682;2023-07-31T04:25:22;20.10;72.00
74101;DHT22;62462;52.530;21.682;2023-07-31T04:27:48;20.20;71.70
74101;DHT22;62462;52.530;21.682;2023-07-31T04:30:14;20.20;71.90
74101;DHT22;62462;52.530;21.682;2023-07-31T04:32:39;20.20;71.40
74101;DHT22;62462;52.530;21.682;2023-07-31T04:35:05;20.20;71.40
74101;DHT22;62462;52.530;21.682;2023-07-31T04:37:31;20.30;71.10
74101;DHT22;62462;52.530;21.682;2023-07-31T04:39:57;20.30;71.40
74101;DHT22;62462;52.530;21.682;2023-07-31T04:42:22;20.30;71.30
74101;DHT22;62462;52.530;21.682;2023-07-31T04:44:48;20.30;71.20
74101;DHT22;62462;52.530;21.682;2023-07-31T04:47:14;20.40;71.30
74101;DHT22;62462;52.530;21.682;2023-07-31T04:49:40;20.40;71.00
74101;DHT22;62462;52.530;21.682;2023-07-31T04:52:05;20.40;71.00
74101;DHT22;62462;52.530;21.682;2023-07-31T04:54:31;20.40;71.20
74101;DHT22;62462;52.530;21.682;2023-07-31T04:56:57;20.30;71.70
74101;DHT22;62462;52.530;21.682;2023-07-31T04:59:22;20.30;71.80
74101;DHT22;62462;52.530;21.682;2023-07-31T05:01:48;20.30;71.80
74101;DHT22;62462;52.530;21.682;2023-07-31T05:04:14;20.30;71.80
74101;DHT22;62462;52.530;21.682;2023-07-31T05:06:40;20.30;72.00
74101;DHT22;62462;52.530;21.682;2023-07-31T05:09:06;20.30;72.30
74101;DHT22;62462;52.530;21.682;2023-07-31T05:11:32;20.20;73.40
74101;DHT22;62462;52.530;21.682;2023-07-31T05:13:57;20.30;72.50
74101;DHT22;62462;52.530;21.682;2023-07-31T05:16:23;20.30;72.40
74101;DHT22;62462;52.530;21.682;2023-07-31T05:18:49;20.40;72.30
74101;DHT22;62462;52.530;21.682;2023-07-31T05:21:14;20.40;72.60
74101;DHT22;62462;52.530;21.682;2023-07-31T05:23:40;20.40;72.20
74101;DHT22;62462;52.530;21.682;2023-07-31T05:26:06;20.30;72.60
74101;DHT22;62462;52.530;21.682;2023-07-31T05:28:35;20.30;73.00
74101;DHT22;62462;52.530;21.682;2023-07-31T05:31:02;20.30;73.10
74101;DHT22;62462;52.530;21.682;2023-07-31T05:33:28;20.30;72.90
74101;DHT22;62462;52.530;21.682;2023-07-31T05:35:54;20.30;72.90
74101;DHT22;62462;52.530;21.682;2023-07-31T05:38:20;20.40;72.50
74101;DHT22;62462;52.530;21.682;2023-07-31T05:40:46;20.50;72.30
74101;DHT22;62462;52.530;21.682;2023-07-31T05:43:12;20.50;72.20
74101;DHT22;62462;52.530;21.682;2023-07-31T05:45:37;20.60;71.90
74101;DHT22;62462;52.530;21.682;2023-07-31T05:48:03;20.60;71.30
74101;DHT22;62462;52.530;21.682;2023-07-31T05:50:30;20.70;71.10
74101;DHT22;62462;52.530;21.682;2023-07-31T05:52:56;20.70;70.80
74101;DHT22;62462;52.530;21.682;2023-07-31T05:55:21;20.70;70.90
74101;DHT22;62462;52.530;21.682;2023-07-31T05:57:47;20.80;71.00
74101;DHT22;62462;52.530;21.682;2023-07-31T06:00:13;20.80;70.90
74101;DHT22;62462;52.530;21.682;2023-07-31T06:02:39;20.80;70.40
74101;DHT22;62462;52.530;21.682;2023-07-31T06:05:05;20.80;70.10
74101;DHT22;62462;52.530;21.682;2023-07-31T06:07:31;20.90;70.10
74101;DHT22;62462;52.530;21.682;2023-07-31T06:09:57;20.90;70.10
74101;DHT22;62462;52.530;21.682;2023-07-31T06:12:30;21.00;69.70
74101;DHT22;62462;52.530;21.682;2023-07-31T06:14:56;21.00;69.10
74101;DHT22;62462;52.530;21.682;2023-07-31T06:17:22;21.00;69.40
74101;DHT22;62462;52.530;21.682;2023-07-31T06:19:49;21.00;69.70
74101;DHT22;62462;52.530;21.682;2023-07-31T06:22:15;21.10;69.20
74101;DHT22;62462;52.530;21.682;2023-07-31T06:24:41;21.10;69.20
74101;DHT22;62462;52.530;21.682;2023-07-31T06:27:06;21.10;68.70
74101;DHT22;62462;52.530;21.682;2023-07-31T06:29:32;21.00;69.10
74101;DHT22;62462;52.530;21.682;2023-07-31T06:31:58;21.00;69.10
74101;DHT22;62462;52.530;21.682;2023-07-31T06:34:24;21.00;69.40
74101;DHT22;62462;52.530;21.682;2023-07-31T06:36:50;21.00;69.10
74101;DHT22;62462;52.530;21.682;2023-07-31T06:39:15;21.10;68.80
74101;DHT22;62462;52.530;21.682;2023-07-31T06:41:42;21.10;68.70
74101;DHT22;62462;52.530;21.682;2023-07-31T06:44:08;21.10;68.00
74101;DHT22;62462;52.530;21.682;2023-07-31T06:46:34;21.20;68.20
74101;DHT22;62462;52.530;21.682;2023-07-31T06:48:59;21.30;67.80
74101;DHT22;62462;52.530;21.682;2023-07-31T06:51:25;21.60;67.50
74101;DHT22;62462;52.530;21.682;2023-07-31T06:53:51;21.70;67.10
74101;DHT22;62462;52.530;21.682;2023-07-31T06:56:16;22.00;65.10
74101;DHT22;62462;52.530;21.682;2023-07-31T06:58:42;22.00;64.80
74101;DHT22;62462;52.530;21.682;2023-07-31T07:01:08;22.00;64.90
74101;DHT22;62462;52.530;21.682;2023-07-31T07:03:34;22.00;65.00
74101;DHT22;62462;52.530;21.682;2023-07-31T07:06:00;22.00;65.10
74101;DHT22;62462;52.530;21.682;2023-07-31T07:08:26;21.90;64.10
74101;DHT22;62462;52.530;21.682;2023-07-31T07:10:51;21.80;65.00
74101;DHT22;62462;52.530;21.682;2023-07-31T07:13:17;21.80;65.20
74101;DHT22;62462;52.530;21.682;2023-07-31T07:15:48;21.80;65.10
74101;DHT22;62462;52.530;21.682;2023-07-31T07:18:14;21.80;65.30
74101;DHT22;62462;52.530;21.682;2023-07-31T07:20:40;21.80;64.60
74101;DHT22;62462;52.530;21.682;2023-07-31T07:23:05;21.70;64.60
74101;DHT22;62462;52.530;21.682;2023-07-31T07:25:31;21.60;64.10
74101;DHT22;62462;52.530;21.682;2023-07-31T07:27:57;21.50;65.00
74101;DHT22;62462;52.530;21.682;2023-07-31T07:30:22;21.40;65.80
74101;DHT22;62462;52.530;21.682;2023-07-31T07:32:50;21.40;66.60
74101;DHT22;62462;52.530;21.682;2023-07-31T07:35:16;21.40;66.00
74101;DHT22;62462;52.530;21.682;2023-07-31T07:37:41;21.40;65.10
74101;DHT22;62462;52.530;21.682;2023-07-31T07:40:08;21.50;65.50
74101;DHT22;62462;52.530;21.682;2023-07-31T07:42:33;21.70;65.50
74101;DHT22;62462;52.530;21.682;2023-07-31T07:44:59;21.70;64.20
74101;DHT22;62462;52.530;21.682;2023-07-31T07:47:25;21.70;64.70
74101;DHT22;62462;52.530;21.682;2023-07-31T07:49:51;21.70;64.80
74101;DHT22;62462;52.530;21.682;2023-07-31T07:52:17;21.80;65.10
74101;DHT22;62462;52.530;21.682;2023-07-31T07:54:43;21.80;64.90
74101;DHT22;62462;52.530;21.682;2023-07-31T07:57:08;21.80;64.10
74101;DHT22;62462;52.530;21.682;2023-07-31T07:59:34;21.80;64.80
74101;DHT22;62462;52.530;21.682;2023-07-31T08:02:00;21.70;64.10
74101;DHT22;62462;52.530;21.682;2023-07-31T08:04:25;21.60;64.40
74101;DHT22;62462;52.530;21.682;2023-07-31T08:06:51;21.60;64.20
74101;DHT22;62462;52.530;21.682;2023-07-31T08:09:17;21.60;64.00
74101;DHT22;62462;52.530;21.682;2023-07-31T08:11:42;21.60;62.60
74101;DHT22;62462;52.530;21.682;2023-07-31T08:14:08;21.60;63.30
74101;DHT22;62462;52.530;21.682;2023-07-31T08:16:34;21.60;63.00
74101;DHT22;62462;52.530;21.682;2023-07-31T08:18:59;21.60;63.10
74101;DHT22;62462;52.530;21.682;2023-07-31T08:21:25;21.70;63.00
74101;DHT22;62462;52.530;21.682;2023-07-31T08:23:51;21.80;62.90
74101;DHT22;62462;52.530;21.682;2023-07-31T08:26:18;21.80;62.50
74101;DHT22;62462;52.530;21.682;2023-07-31T08:28:44;22.00;63.10
74101;DHT22;62462;52.530;21.682;2023-07-31T08:31:10;22.20;61.30
74101;DHT22;62462;52.530;21.682;2023-07-31T08:33:36;22.40;61.40
74101;DHT22;62462;52.530;21.682;2023-07-31T08:36:02;22.40;60.80
74101;DHT22;62462;52.530;21.682;2023-07-31T08:38:28;22.40;60.60
74101;DHT22;62462;52.530;21.682;2023-07-31T08:40:56;22.50;61.10
74101;DHT22;62462;52.530;21.682;2023-07-31T08:43:25;22.70;60.80
74101;DHT22;62462;52.530;21.682;2023-07-31T08:45:51;23.00;60.00
74101;DHT22;62462;52.530;21.682;2023-07-31T08:48:17;23.20;59.90
74101;DHT22;62462;52.530;21.682;2023-07-31T08:50:43;23.20;58.30
74101;DHT22;62462;52.530;21.682;2023-07-31T08:53:09;23.10;58.30
74101;DHT22;62462;52.530;21.682;2023-07-31T08:55:35;23.20;58.90
74101;DHT22;62462;52.530;21.682;2023-07-31T08:58:04;23.20;57.90
74101;DHT22;62462;52.530;21.682;2023-07-31T09:00:31;23.20;58.50
74101;DHT22;62462;52.530;21.682;2023-07-31T09:03:03;23.40;58.50
74101;DHT22;62462;52.530;21.682;2023-07-31T09:05:34;23.50;57.10
74101;DHT22;62462;52.530;21.682;2023-07-31T09:08:02;23.70;57.40
74101;DHT22;62462;52.530;21.682;2023-07-31T09:10:29;23.90;56.70
74101;DHT22;62462;52.530;21.682;2023-07-31T09:12:55;24.00;54.30
74101;DHT22;62462;52.530;21.682;2023-07-31T09:15:22;24.00;55.50
74101;DHT22;62462;52.530;21.682;2023-07-31T09:17:59;24.10;55.00
74101;DHT22;62462;52.530;21.682;2023-07-31T09:20:25;24.50;54.40
74101;DHT22;62462;52.530;21.682;2023-07-31T09:22:51;24.80;53.80
74101;DHT22;62462;52.530;21.682;2023-07-31T09:27:51;24.80;52.10
74101;DHT22;62462;52.530;21.682;2023-07-31T09:30:17;24.80;52.40
74101;DHT22;62462;52.530;21.682;2023-07-31T09:32:47;25.00;50.80
74101;DHT22;62462;52.530;21.682;2023-07-31T09:37:51;25.20;52.30
74101;DHT22;62462;52.530;21.682;2023-07-31T09:40:31;25.50;51.80
74101;DHT22;62462;52.530;21.682;2023-07-31T09:43:02;25.70;49.60
74101;DHT22;62462;52.530;21.682;2023-07-31T09:45:28;25.70;48.60
74101;DHT22;62462;52.530;21.682;2023-07-31T09:47:55;25.40;47.50
74101;DHT22;62462;52.530;21.682;2023-07-31T09:50:23;25.20;48.70
74101;DHT22;62462;52.530;21.682;2023-07-31T09:52:50;25.00;48.50
74101;DHT22;62462;52.530;21.682;2023-07-31T09:55:16;24.90;48.60
74101;DHT22;62462;52.530;21.682;2023-07-31T09:57:45;24.90;49.20
74101;DHT22;62462;52.530;21.682;2023-07-31T10:00:13;25.10;48.10
74101;DHT22;62462;52.530;21.682;2023-07-31T10:02:39;25.20;47.50
74101;DHT22;62462;52.530;21.682;2023-07-31T10:05:06;25.00;47.00
74101;DHT22;62462;52.530;21.682;2023-07-31T10:07:37;24.80;47.40
74101;DHT22;62462;52.530;21.682;2023-07-31T10:10:05;24.60;48.00
74101;DHT22;62462;52.530;21.682;2023-07-31T10:12:33;24.80;48.90
74101;DHT22;62462;52.530;21.682;2023-07-31T10:15:00;24.90;47.70
74101;DHT22;62462;52.530;21.682;2023-07-31T10:17:26;24.90;48.30
74101;DHT22;62462;52.530;21.682;2023-07-31T10:19:53;24.80;47.90
74101;DHT22;62462;52.530;21.682;2023-07-31T10:22:22;24.90;48.50
74101;DHT22;62462;52.530;21.682;2023-07-31T10:24:49;24.90;46.50
74101;DHT22;62462;52.530;21.682;2023-07-31T10:27:15;25.00;47.60
74101;DHT22;62462;52.530;21.682;2023-07-31T10:29:43;25.10;46.40
74101;DHT22;62462;52.530;21.682;2023-07-31T10:32:13;25.10;46.30
74101;DHT22;62462;52.530;21.682;2023-07-31T10:34:40;25.00;46.20
74101;DHT22;62462;52.530;21.682;2023-07-31T10:37:39;25.00;47.10
74101;DHT22;62462;52.530;21.682;2023-07-31T10:40:07;25.20;46.20
74101;DHT22;62462;52.530;21.682;2023-07-31T10:42:56;25.50;46.70
74101;DHT22;62462;52.530;21.682;2023-07-31T10:45:39;25.50;44.30
74101;DHT22;62462;52.530;21.682;2023-07-31T10:48:13;25.50;43.60
74101;DHT22;62462;52.530;21.682;2023-07-31T10:50:50;25.60;43.80
74101;DHT22;62462;52.530;21.682;2023-07-31T10:55:49;25.70;44.50
74101;DHT22;62462;52.530;21.682;2023-07-31T10:58:19;25.80;44.30
74101;DHT22;62462;52.530;21.682;2023-07-31T11:00:45;25.80;42.70
74101;DHT22;62462;52.530;21.682;2023-07-31T11:03:17;25.70;41.90
74101;DHT22;62462;52.530;21.682;2023-07-31T11:05:52;25.60;42.70
74101;DHT22;62462;52.530;21.682;2023-07-31T11:08:24;25.40;43.30
74101;DHT22;62462;52.530;21.682;2023-07-31T11:13:48;25.30;45.20
74101;DHT22;62462;52.530;21.682;2023-07-31T11:16:15;25.40;44.00
74101;DHT22;62462;52.530;21.682;2023-07-31T11:18:45;25.50;44.10
74101;DHT22;62462;52.530;21.682;2023-07-31T11:21:15;25.60;42.90
74101;DHT22;62462;52.530;21.682;2023-07-31T11:23:45;25.70;42.20
74101;DHT22;62462;52.530;21.682;2023-07-31T11:26:12;25.70;41.40
74101;DHT22;62462;52.530;21.682;2023-07-31T11:28:38;25.60;40.60
74101;DHT22;62462;52.530;21.682;2023-07-31T11:31:04;25.60;42.40
74101;DHT22;62462;52.530;21.682;2023-07-31T11:33:30;25.80;42.80
74101;DHT22;62462;52.530;21.682;2023-07-31T11:35:56;26.00;41.80
74101;DHT22;62462;52.530;21.682;2023-07-31T11:38:27;26.10;41.00
74101;DHT22;62462;52.530;21.682;2023-07-31T11:40:58;26.10;39.90
74101;DHT22;62462;52.530;21.682;2023-07-31T11:43:24;26.10;40.30
74101;DHT22;62462;52.530;21.682;2023-07-31T11:45:54;26.10;39.60
74101;DHT22;62462;52.530;21.682;2023-07-31T11:48:22;26.10;40.40
74101;DHT22;62462;52.530;21.682;2023-07-31T11:50:49;26.10;39.90
74101;DHT22;62462;52.530;21.682;2023-07-31T11:53:17;26.20;40.40
74101;DHT22;62462;52.530;21.682;2023-07-31T11:55:44;26.10;39.90
74101;DHT22;62462;52.530;21.682;2023-07-31T11:58:11;26.10;40.00
74101;DHT22;62462;52.530;21.682;2023-07-31T12:00:37;26.10;39.50
74101;DHT22;62462;52.530;21.682;2023-07-31T12:03:03;26.30;40.20
74101;DHT22;62462;52.530;21.682;2023-07-31T12:05:28;26.40;40.00
74101;DHT22;62462;52.530;21.682;2023-07-31T12:07:55;26.50;38.10
74101;DHT22;62462;52.530;21.682;2023-07-31T12:10:32;26.40;37.90
74101;DHT22;62462;52.530;21.682;2023-07-31T12:13:09;26.20;38.00
74101;DHT22;62462;52.530;21.682;2023-07-31T12:15:43;26.20;37.50
74101;DHT22;62462;52.530;21.682;2023-07-31T12:18:13;26.20;38.80
74101;DHT22;62462;52.530;21.682;2023-07-31T12:20:47;26.30;38.50
74101;DHT22;62462;52.530;21.682;2023-07-31T12:23:20;26.50;39.30
74101;DHT22;62462;52.530;21.682;2023-07-31T12:26:07;26.50;37.40
74101;DHT22;62462;52.530;21.682;2023-07-31T12:31:10;26.30;38.40
74101;DHT22;62462;52.530;21.682;2023-07-31T12:33:38;26.30;38.20
74101;DHT22;62462;52.530;21.682;2023-07-31T12:36:10;26.40;38.30
74101;DHT22;62462;52.530;21.682;2023-07-31T12:38:36;26.50;37.70
74101;DHT22;62462;52.530;21.682;2023-07-31T12:41:02;26.50;37.20
74101;DHT22;62462;52.530;21.682;2023-07-31T12:43:28;26.50;37.80
74101;DHT22;62462;52.530;21.682;2023-07-31T12:45:56;26.50;38.60
74101;DHT22;62462;52.530;21.682;2023-07-31T12:48:22;26.60;39.50
74101;DHT22;62462;52.530;21.682;2023-07-31T12:50:48;26.60;37.90
74101;DHT22;62462;52.530;21.682;2023-07-31T12:53:15;26.60;37.70
74101;DHT22;62462;52.530;21.682;2023-07-31T12:55:41;26.50;37.50
74101;DHT22;62462;52.530;21.682;2023-07-31T12:58:06;26.40;37.80
74101;DHT22;62462;52.530;21.682;2023-07-31T13:00:32;26.40;37.60
74101;DHT22;62462;52.530;21.682;2023-07-31T13:02:58;26.40;37.60
74101;DHT22;62462;52.530;21.682;2023-07-31T13:05:24;26.10;37.10
74101;DHT22;62462;52.530;21.682;2023-07-31T13:07:50;25.90;37.40
74101;DHT22;62462;52.530;21.682;2023-07-31T13:10:16;25.70;38.10
74101;DHT22;62462;52.530;21.682;2023-07-31T13:12:41;25.60;39.00
74101;DHT22;62462;52.530;21.682;2023-07-31T13:15:08;25.60;39.10
74101;DHT22;62462;52.530;21.682;2023-07-31T13:17:34;25.60;39.80
74101;DHT22;62462;52.530;21.682;2023-07-31T13:19:59;25.60;39.00
74101;DHT22;62462;52.530;21.682;2023-07-31T13:22:25;25.50;39.00
74101;DHT22;62462;52.530;21.682;2023-07-31T13:24:51;25.40;39.80
74101;DHT22;62462;52.530;21.682;2023-07-31T13:27:17;25.30;39.60
74101;DHT22;62462;52.530;21.682;2023-07-31T13:29:46;25.40;40.20
74101;DHT22;62462;52.530;21.682;2023-07-31T13:32:12;25.50;38.70
74101;DHT22;62462;52.530;21.682;2023-07-31T13:34:37;25.50;37.80
74101;DHT22;62462;52.530;21.682;2023-07-31T13:37:03;25.30;38.90
74101;DHT22;62462;52.530;21.682;2023-07-31T13:39:31;25.30;39.50
74101;DHT22;62462;52.530;21.682;2023-07-31T13:41:57;25.40;39.80
74101;DHT22;62462;52.530;21.682;2023-07-31T13:44:22;25.40;39.10
74101;DHT22;62462;52.530;21.682;2023-07-31T13:46:48;25.50;38.60
74101;DHT22;62462;52.530;21.682;2023-07-31T13:49:14;25.40;37.90
74101;DHT22;62462;52.530;21.682;2023-07-31T13:51:40;25.40;37.60
74101;DHT22;62462;52.530;21.682;2023-07-31T13:54:05;25.40;37.40
74101;DHT22;62462;52.530;21.682;2023-07-31T13:56:34;25.40;38.70
74101;DHT22;62462;52.530;21.682;2023-07-31T13:58:59;25.40;38.60
74101;DHT22;62462;52.530;21.682;2023-07-31T14:01:26;25.60;37.90
74101;DHT22;62462;52.530;21.682;2023-07-31T14:03:52;25.70;37.00
74101;DHT22;62462;52.530;21.682;2023-07-31T14:06:19;25.80;37.80
74101;DHT22;62462;52.530;21.682;2023-07-31T14:08:44;26.00;36.30
74101;DHT22;62462;52.530;21.682;2023-07-31T14:11:10;26.00;36.80
74101;DHT22;62462;52.530;21.682;2023-07-31T14:13:36;26.00;36.30
74101;DHT22;62462;52.530;21.682;2023-07-31T14:16:01;26.10;36.50
74101;DHT22;62462;52.530;21.682;2023-07-31T14:18:27;26.40;36.90
74101;DHT22;62462;52.530;21.682;2023-07-31T14:20:53;26.60;37.00
74101;DHT22;62462;52.530;21.682;2023-07-31T14:23:19;26.60;36.70
74101;DHT22;62462;52.530;21.682;2023-07-31T14:25:46;26.60;36.30
74101;DHT22;62462;52.530;21.682;2023-07-31T14:28:11;26.40;36.20
74101;DHT22;62462;52.530;21.682;2023-07-31T14:30:37;26.40;36.60
74101;DHT22;62462;52.530;21.682;2023-07-31T14:33:03;26.30;36.90
74101;DHT22;62462;52.530;21.682;2023-07-31T14:35:29;26.20;36.80
74101;DHT22;62462;52.530;21.682;2023-07-31T14:37:54;26.10;37.30
74101;DHT22;62462;52.530;21.682;2023-07-31T14:40:20;26.00;37.10
74101;DHT22;62462;52.530;21.682;2023-07-31T14:42:46;25.90;37.80
74101;DHT22;62462;52.530;21.682;2023-07-31T14:45:12;25.80;37.70
74101;DHT22;62462;52.530;21.682;2023-07-31T14:47:37;25.80;37.90
74101;DHT22;62462;52.530;21.682;2023-07-31T14:50:03;25.90;38.10
74101;DHT22;62462;52.530;21.682;2023-07-31T14:52:29;25.90;37.40
74101;DHT22;62462;52.530;21.682;2023-07-31T14:54:55;26.10;37.00
74101;DHT22;62462;52.530;21.682;2023-07-31T14:57:21;26.40;38.10
74101;DHT22;62462;52.530;21.682;2023-07-31T14:59:47;26.50;36.70
74101;DHT22;62462;52.530;21.682;2023-07-31T15:02:15;26.50;36.60
74101;DHT22;62462;52.530;21.682;2023-07-31T15:04:41;26.40;36.60
74101;DHT22;62462;52.530;21.682;2023-07-31T15:07:07;26.40;37.00
74101;DHT22;62462;52.530;21.682;2023-07-31T15:09:32;26.30;37.00
74101;DHT22;62462;52.530;21.682;2023-07-31T15:11:58;26.20;37.50
74101;DHT22;62462;52.530;21.682;2023-07-31T15:14:24;26.00;37.90
74101;DHT22;62462;52.530;21.682;2023-07-31T15:16:50;25.90;37.70
74101;DHT22;62462;52.530;21.682;2023-07-31T15:19:16;25.70;38.50
74101;DHT22;62462;52.530;21.682;2023-07-31T15:21:42;25.70;38.30
74101;DHT22;62462;52.530;21.682;2023-07-31T15:24:08;25.60;38.70
74101;DHT22;62462;52.530;21.682;2023-07-31T15:26:34;25.50;39.30
74101;DHT22;62462;52.530;21.682;2023-07-31T15:29:06;25.60;39.40
74101;DHT22;62462;52.530;21.682;2023-07-31T15:31:38;25.50;39.50